createdAt,value
2024-05-09T00:00:37.921Z,24.72
2024-05-09T00:01:32.320Z,24.72
2024-05-09T00:02:31.427Z,24.69
2024-05-09T00:03:31.427Z,24.70
2024-05-09T00:04:31.376Z,24.65
2024-05-09T00:05:31.487Z,24.69
2024-05-09T00:06:31.486Z,24.63
2024-05-09T00:07:31.515Z,24.65
2024-05-09T00:08:31.696Z,24.63
2024-05-09T00:09:31.654Z,24.63
2024-05-09T00:10:36.143Z,24.63
2024-05-09T00:11:32.887Z,24.63
2024-05-09T00:12:31.983Z,24.63
2024-05-09T00:13:31.939Z,24.63
2024-05-09T00:14:32.319Z,24.60
2024-05-09T00:15:32.054Z,24.60
2024-05-09T00:16:32.086Z,24.60
2024-05-09T00:17:32.306Z,24.62
2024-05-09T00:18:32.324Z,24.58
2024-05-09T00:19:32.430Z,24.59
2024-05-09T00:20:37.731Z,24.58
2024-05-09T00:21:33.361Z,24.55
2024-05-09T00:22:32.462Z,24.55
2024-05-09T00:23:32.661Z,24.55
2024-05-09T00:24:32.542Z,24.54
2024-05-09T00:25:32.609Z,24.54
2024-05-09T00:26:32.766Z,24.55
2024-05-09T00:27:32.743Z,24.55
2024-05-09T00:28:32.800Z,24.55
2024-05-09T00:29:33.003Z,24.54
2024-05-09T00:30:35.562Z,24.52
2024-05-09T00:31:33.063Z,24.54
2024-05-09T00:32:33.368Z,24.52
2024-05-09T00:33:33.357Z,24.49
2024-05-09T00:34:33.256Z,24.52
2024-05-09T00:35:33.490Z,24.51
2024-05-09T00:36:33.350Z,24.51
2024-05-09T00:37:33.411Z,24.49
2024-05-09T00:38:33.552Z,24.46
2024-05-09T00:39:33.537Z,24.45
2024-05-09T00:40:39.059Z,24.45
2024-05-09T00:41:34.779Z,24.45
2024-05-09T00:42:33.726Z,24.45
2024-05-09T00:43:33.775Z,24.45
2024-05-09T00:44:33.905Z,24.43
2024-05-09T00:45:33.932Z,24.42
2024-05-09T00:46:33.971Z,24.43
2024-05-09T00:47:34.111Z,24.45
2024-05-09T00:48:34.119Z,24.45
2024-05-09T00:49:34.436Z,24.46
2024-05-09T00:50:36.859Z,24.43
2024-05-09T00:51:34.337Z,24.45
2024-05-09T00:52:34.390Z,24.48
2024-05-09T00:53:34.672Z,24.43
2024-05-09T00:54:34.524Z,24.45
2024-05-09T00:55:34.572Z,24.45
2024-05-09T00:56:34.686Z,24.45
2024-05-09T00:57:34.703Z,24.48
2024-05-09T00:58:34.785Z,24.45
2024-05-09T00:59:34.904Z,24.46
2024-05-09T01:00:39.339Z,24.46
2024-05-09T01:01:36.008Z,24.46
2024-05-09T01:02:35.247Z,24.48
2024-05-09T01:03:35.327Z,24.46
2024-05-09T01:04:35.247Z,24.46
2024-05-09T01:05:35.692Z,24.46
2024-05-09T01:06:35.285Z,24.45
2024-05-09T01:07:35.331Z,24.43
2024-05-09T01:08:35.404Z,24.48
2024-05-09T01:09:35.473Z,24.43
2024-05-09T01:10:36.492Z,24.43
2024-05-09T01:11:35.782Z,24.42
2024-05-09T01:12:35.988Z,24.45
2024-05-09T01:13:35.959Z,24.43
2024-05-09T01:14:35.926Z,24.42
2024-05-09T01:15:36.130Z,24.40
2024-05-09T01:16:36.042Z,24.40
2024-05-09T01:17:36.371Z,24.39
2024-05-09T01:18:36.303Z,24.38
2024-05-09T01:19:36.592Z,24.35
2024-05-09T01:20:41.551Z,24.35
2024-05-09T01:21:37.368Z,24.34
2024-05-09T01:22:36.444Z,24.32
2024-05-09T01:23:36.767Z,24.36
2024-05-09T01:24:36.541Z,24.35
2024-05-09T01:25:36.659Z,24.34
2024-05-09T01:26:36.710Z,24.32
2024-05-09T01:27:36.733Z,24.32
2024-05-09T01:28:37.390Z,24.32
2024-05-09T01:29:36.888Z,24.32
2024-05-09T01:30:37.930Z,24.32
2024-05-09T01:31:37.106Z,24.32
2024-05-09T01:32:37.133Z,24.31
2024-05-09T01:33:38.413Z,24.31
2024-05-09T01:34:37.142Z,24.28
2024-05-09T01:35:37.445Z,24.27
2024-05-09T01:36:37.262Z,24.27
2024-05-09T01:37:37.348Z,24.24
2024-05-09T01:38:37.472Z,24.22
2024-05-09T01:39:39.452Z,24.21
2024-05-09T01:40:39.888Z,24.24
2024-05-09T01:41:37.619Z,24.22
2024-05-09T01:42:37.693Z,24.22
2024-05-09T01:43:37.713Z,24.24
2024-05-09T01:44:37.921Z,24.24
2024-05-09T01:45:37.856Z,24.25
2024-05-09T01:46:37.890Z,24.24
2024-05-09T01:47:38.099Z,24.25
2024-05-09T01:48:38.121Z,24.22
2024-05-09T01:49:38.139Z,24.25
2024-05-09T01:50:41.320Z,24.24
2024-05-09T01:51:38.174Z,24.24
2024-05-09T01:52:38.245Z,24.24
2024-05-09T01:53:38.413Z,24.20
2024-05-09T01:54:38.375Z,24.20
2024-05-09T01:55:38.586Z,24.20
2024-05-09T01:56:38.547Z,24.18
2024-05-09T01:57:38.589Z,24.17
2024-05-09T01:58:38.610Z,24.11
2024-05-09T01:59:38.699Z,24.11
2024-05-09T02:00:41.762Z,24.11
2024-05-09T02:01:55.828Z,24.07
2024-05-09T02:02:39.978Z,24.07
2024-05-09T02:03:39.049Z,24.07
2024-05-09T02:04:39.068Z,24.03
2024-05-09T02:05:39.310Z,24.01
2024-05-09T02:06:39.116Z,24.00
2024-05-09T02:07:39.234Z,24.00
2024-05-09T02:08:39.352Z,23.94
2024-05-09T02:09:39.332Z,23.93
2024-05-09T02:10:39.419Z,23.91
2024-05-09T02:11:39.835Z,23.90
2024-05-09T02:12:39.564Z,23.90
2024-05-09T02:13:39.601Z,23.90
2024-05-09T02:14:39.733Z,23.90
2024-05-09T02:15:39.776Z,23.88
2024-05-09T02:16:39.815Z,23.87
2024-05-09T02:17:40.098Z,23.87
2024-05-09T02:18:40.046Z,23.90
2024-05-09T02:19:40.040Z,23.88
2024-05-09T02:20:40.153Z,23.90
2024-05-09T02:21:40.180Z,23.88
2024-05-09T02:22:40.261Z,23.90
2024-05-09T02:23:40.428Z,23.90
2024-05-09T02:24:40.371Z,23.90
2024-05-09T02:25:40.455Z,23.90
2024-05-09T02:26:40.548Z,23.90
2024-05-09T02:27:40.582Z,23.88
2024-05-09T02:28:40.652Z,23.88
2024-05-09T02:29:40.762Z,23.88
2024-05-09T02:30:42.227Z,23.90
2024-05-09T02:31:40.837Z,23.88
2024-05-09T02:32:41.056Z,23.87
2024-05-09T02:33:41.153Z,23.87
2024-05-09T02:34:41.038Z,23.84
2024-05-09T02:35:41.212Z,23.83
2024-05-09T02:36:41.236Z,23.81
2024-05-09T02:37:41.926Z,23.81
2024-05-09T02:38:41.337Z,23.84
2024-05-09T02:39:41.380Z,23.83
2024-05-09T02:40:41.471Z,23.81
2024-05-09T02:41:41.512Z,23.81
2024-05-09T02:42:41.597Z,23.81
2024-05-09T02:43:41.699Z,23.80
2024-05-09T02:44:41.780Z,23.81
2024-05-09T02:45:41.949Z,23.80
2024-05-09T02:46:41.944Z,23.81
2024-05-09T02:47:42.144Z,23.81
2024-05-09T02:48:42.198Z,23.83
2024-05-09T02:49:42.160Z,23.81
2024-05-09T02:50:42.442Z,23.81
2024-05-09T02:51:42.318Z,23.81
2024-05-09T02:52:42.366Z,23.84
2024-05-09T02:53:42.507Z,23.81
2024-05-09T02:54:42.488Z,23.83
2024-05-09T02:55:43.041Z,23.85
2024-05-09T02:56:42.661Z,23.84
2024-05-09T02:57:42.690Z,23.81
2024-05-09T02:58:42.767Z,23.81
2024-05-09T02:59:42.821Z,23.80
2024-05-09T03:00:43.251Z,23.81
2024-05-09T03:01:43.022Z,23.79
2024-05-09T03:02:43.229Z,23.77
2024-05-09T03:03:43.246Z,23.79
2024-05-09T03:04:43.260Z,23.77
2024-05-09T03:05:43.561Z,23.79
2024-05-09T03:06:43.266Z,23.76
2024-05-09T03:07:43.371Z,23.76
2024-05-09T03:08:43.444Z,23.77
2024-05-09T03:09:43.476Z,23.77
2024-05-09T03:10:43.556Z,23.76
2024-05-09T03:11:43.658Z,23.77
2024-05-09T03:12:43.757Z,23.76
2024-05-09T03:13:43.734Z,23.74
2024-05-09T03:14:43.824Z,23.74
2024-05-09T03:15:43.974Z,23.76
2024-05-09T03:16:44.072Z,23.73
2024-05-09T03:17:44.148Z,23.76
2024-05-09T03:18:44.133Z,23.73
2024-05-09T03:19:44.220Z,23.76
2024-05-09T03:20:44.678Z,23.77
2024-05-09T03:21:44.265Z,23.76
2024-05-09T03:22:44.357Z,23.74
2024-05-09T03:23:44.545Z,23.73
2024-05-09T03:24:44.485Z,23.74
2024-05-09T03:25:44.583Z,23.73
2024-05-09T03:26:44.611Z,23.73
2024-05-09T03:27:44.707Z,23.69
2024-05-09T03:28:44.841Z,23.67
2024-05-09T03:29:44.838Z,23.67
2024-05-09T03:30:44.906Z,23.67
2024-05-09T03:31:45.139Z,23.64
2024-05-09T03:32:45.138Z,23.63
2024-05-09T03:33:45.323Z,23.60
2024-05-09T03:34:45.226Z,23.59
2024-05-09T03:35:45.266Z,23.59
2024-05-09T03:36:45.341Z,23.56
2024-05-09T03:37:45.442Z,23.55
2024-05-09T03:38:45.528Z,23.56
2024-05-09T03:39:45.549Z,23.57
2024-05-09T03:40:45.674Z,23.57
2024-05-09T03:41:45.718Z,23.57
2024-05-09T03:42:45.775Z,23.55
2024-05-09T03:43:45.865Z,23.59
2024-05-09T03:44:45.886Z,23.57
2024-05-09T03:45:45.988Z,23.53
2024-05-09T03:46:46.101Z,23.55
2024-05-09T03:47:46.405Z,23.56
2024-05-09T03:48:46.386Z,23.52
2024-05-09T03:49:46.307Z,23.50
2024-05-09T03:50:46.460Z,23.50
2024-05-09T03:51:46.524Z,23.50
2024-05-09T03:52:46.681Z,23.48
2024-05-09T03:53:46.784Z,23.49
2024-05-09T03:54:46.862Z,23.48
2024-05-09T03:55:47.035Z,23.43
2024-05-09T03:56:47.097Z,23.42
2024-05-09T03:57:47.235Z,23.41
2024-05-09T03:58:47.412Z,23.39
2024-05-09T03:59:47.472Z,23.36
2024-05-09T04:00:47.685Z,23.36
2024-05-09T04:01:47.853Z,23.35
2024-05-09T04:02:47.946Z,23.32
2024-05-09T04:03:48.179Z,23.33
2024-05-09T04:04:48.119Z,23.32
2024-05-09T04:05:48.195Z,23.32
2024-05-09T04:06:48.212Z,23.30
2024-05-09T04:07:48.341Z,23.28
2024-05-09T04:08:48.413Z,23.28
2024-05-09T04:09:48.423Z,23.28
2024-05-09T04:10:48.586Z,23.28
2024-05-09T04:11:48.674Z,23.29
2024-05-09T04:12:48.650Z,23.25
2024-05-09T04:13:48.779Z,23.25
2024-05-09T04:14:48.791Z,23.28
2024-05-09T04:15:48.868Z,23.29
2024-05-09T04:16:49.055Z,23.28
2024-05-09T04:17:49.344Z,23.28
2024-05-09T04:18:49.447Z,23.29
2024-05-09T04:19:49.199Z,23.25
2024-05-09T04:20:49.353Z,23.22
2024-05-09T04:21:49.325Z,23.26
2024-05-09T04:22:49.447Z,23.23
2024-05-09T04:23:49.501Z,23.22
2024-05-09T04:24:49.523Z,23.22
2024-05-09T04:25:49.694Z,23.22
2024-05-09T04:26:49.765Z,23.21
2024-05-09T04:27:49.905Z,23.19
2024-05-09T04:28:50.124Z,23.22
2024-05-09T04:29:50.159Z,23.23
2024-05-09T04:30:50.299Z,23.21
2024-05-09T04:31:50.485Z,23.22
2024-05-09T04:32:50.728Z,23.18
2024-05-09T04:33:50.929Z,23.18
2024-05-09T04:34:50.956Z,23.17
2024-05-09T04:35:51.039Z,23.15
2024-05-09T04:36:51.139Z,23.15
2024-05-09T04:37:51.351Z,23.12
2024-05-09T04:38:51.490Z,23.11
2024-05-09T04:39:51.562Z,23.12
2024-05-09T04:40:51.688Z,23.11
2024-05-09T04:41:51.821Z,23.11
2024-05-09T04:42:52.004Z,23.12
2024-05-09T04:43:52.215Z,23.14
2024-05-09T04:44:54.194Z,23.14
2024-05-09T04:45:52.397Z,23.15
2024-05-09T04:46:52.441Z,23.14
2024-05-09T04:47:52.540Z,23.15
2024-05-09T04:48:52.656Z,23.12
2024-05-09T04:50:00.218Z,23.11
2024-05-09T04:51:00.159Z,23.12
2024-05-09T04:52:00.159Z,23.12
2024-05-09T04:53:00.216Z,23.14
2024-05-09T04:54:00.176Z,23.15
2024-05-09T04:55:00.186Z,23.15
2024-05-09T04:56:00.286Z,23.15
2024-05-09T04:57:00.247Z,23.17
2024-05-09T04:58:00.323Z,23.17
2024-05-09T04:59:01.263Z,23.17
2024-05-09T05:00:00.364Z,23.17
2024-05-09T05:01:00.352Z,23.17
2024-05-09T05:02:00.481Z,23.17
2024-05-09T05:03:00.572Z,23.18
2024-05-09T05:04:00.538Z,23.18
2024-05-09T05:05:00.502Z,23.18
2024-05-09T05:06:00.466Z,23.15
2024-05-09T05:07:02.531Z,23.18
2024-05-09T05:08:03.221Z,23.19
2024-05-09T05:09:00.633Z,23.19
2024-05-09T05:10:00.517Z,23.19
2024-05-09T05:11:00.640Z,23.18
2024-05-09T05:12:00.670Z,23.18
2024-05-09T05:13:00.726Z,23.17
2024-05-09T05:14:00.719Z,23.18
2024-05-09T05:15:00.671Z,23.21
2024-05-09T05:16:00.652Z,23.19
2024-05-09T05:17:00.706Z,23.19
2024-05-09T05:18:00.868Z,23.18
2024-05-09T05:19:00.912Z,23.19
2024-05-09T05:20:00.807Z,23.18
2024-05-09T05:21:00.735Z,23.19
2024-05-09T05:22:00.705Z,23.19
2024-05-09T05:23:00.939Z,23.17
2024-05-09T05:24:01.738Z,23.18
2024-05-09T05:25:00.733Z,23.17
2024-05-09T05:26:01.803Z,23.14
2024-05-09T05:27:00.819Z,23.12
2024-05-09T05:28:00.797Z,23.11
2024-05-09T05:29:01.730Z,23.12
2024-05-09T05:30:00.827Z,23.09
2024-05-09T05:31:00.850Z,23.08
2024-05-09T05:32:01.808Z,23.08
2024-05-09T05:33:01.232Z,23.08
2024-05-09T05:34:00.983Z,23.09
2024-05-09T05:35:01.008Z,23.08
2024-05-09T05:36:00.985Z,23.07
2024-05-09T05:37:01.729Z,23.05
2024-05-09T05:38:01.211Z,23.05
2024-05-09T05:39:01.040Z,23.02
2024-05-09T05:40:01.734Z,23.07
2024-05-09T05:41:01.717Z,23.05
2024-05-09T05:42:01.088Z,23.08
2024-05-09T05:43:01.218Z,23.09
2024-05-09T05:44:01.280Z,23.09
2024-05-09T05:45:01.161Z,23.12
2024-05-09T05:46:01.207Z,23.12
2024-05-09T05:47:01.361Z,23.12
2024-05-09T05:48:01.461Z,23.11
2024-05-09T05:49:01.258Z,23.12
2024-05-09T05:50:02.940Z,23.12
2024-05-09T05:51:04.184Z,23.12
2024-05-09T05:52:01.299Z,23.14
2024-05-09T05:53:01.305Z,23.14
2024-05-09T05:54:01.342Z,23.17
2024-05-09T05:55:01.309Z,23.17
2024-05-09T05:56:01.574Z,23.19
2024-05-09T05:57:01.346Z,23.21
2024-05-09T05:58:02.209Z,23.21
2024-05-09T05:59:01.493Z,23.19
2024-05-09T06:00:01.463Z,23.21
2024-05-09T06:01:01.444Z,23.22
2024-05-09T06:02:01.527Z,23.21
2024-05-09T06:03:01.574Z,23.22
2024-05-09T06:04:01.506Z,23.25
2024-05-09T06:05:01.522Z,23.23
2024-05-09T06:06:01.599Z,23.25
2024-05-09T06:07:01.474Z,23.21
2024-05-09T06:08:01.690Z,23.22
2024-05-09T06:09:01.496Z,23.23
2024-05-09T06:10:02.926Z,23.26
2024-05-09T06:11:01.777Z,23.28
2024-05-09T06:12:01.709Z,23.25
2024-05-09T06:13:01.607Z,23.25
2024-05-09T06:14:01.629Z,23.26
2024-05-09T06:15:01.559Z,23.26
2024-05-09T06:16:01.564Z,23.26
2024-05-09T06:17:01.690Z,23.25
2024-05-09T06:18:01.973Z,23.28
2024-05-09T06:19:01.654Z,23.28
2024-05-09T06:20:01.743Z,23.29
2024-05-09T06:21:01.804Z,23.28
2024-05-09T06:22:01.647Z,23.28
2024-05-09T06:23:01.757Z,23.29
2024-05-09T06:24:04.482Z,23.29
2024-05-09T06:25:01.735Z,23.29
2024-05-09T06:26:01.808Z,23.29
2024-05-09T06:27:01.717Z,23.29
2024-05-09T06:28:01.831Z,23.29
2024-05-09T06:29:01.742Z,23.29
2024-05-09T06:30:01.745Z,23.29
2024-05-09T06:31:01.750Z,23.29
2024-05-09T06:32:01.971Z,23.32
2024-05-09T06:33:02.008Z,23.30
2024-05-09T06:34:02.000Z,23.33
2024-05-09T06:35:01.819Z,23.33
2024-05-09T06:36:01.825Z,23.38
2024-05-09T06:37:01.850Z,23.41
2024-05-09T06:38:02.270Z,23.41
2024-05-09T06:39:01.884Z,23.39
2024-05-09T06:40:01.866Z,23.39
2024-05-09T06:41:01.903Z,23.41
2024-05-09T06:42:01.861Z,23.39
2024-05-09T06:43:01.895Z,23.42
2024-05-09T06:44:01.960Z,23.42
2024-05-09T06:45:01.925Z,23.43
2024-05-09T06:46:01.915Z,23.50
2024-05-09T06:47:01.994Z,23.52
2024-05-09T06:48:02.187Z,23.53
2024-05-09T06:49:02.206Z,23.56
2024-05-09T06:50:02.009Z,23.53
2024-05-09T06:51:01.968Z,23.55
2024-05-09T06:52:01.964Z,23.50
2024-05-09T06:53:02.145Z,23.63
2024-05-09T06:54:01.946Z,23.70
2024-05-09T06:55:02.021Z,23.72
2024-05-09T06:56:02.037Z,23.69
2024-05-09T06:57:02.004Z,23.69
2024-05-09T06:58:02.049Z,23.67
2024-05-09T06:59:02.067Z,23.69
2024-05-09T07:00:01.977Z,23.77
2024-05-09T07:01:02.062Z,23.84
2024-05-09T07:02:02.135Z,23.88
2024-05-09T07:03:05.693Z,23.88
2024-05-09T07:04:02.400Z,23.97
2024-05-09T07:05:02.239Z,23.94
2024-05-09T07:06:02.218Z,23.96
2024-05-09T07:07:02.707Z,23.93
2024-05-09T07:08:02.201Z,23.99
2024-05-09T07:09:02.124Z,23.97
2024-05-09T07:10:02.089Z,23.97
2024-05-09T07:11:02.252Z,24.04
2024-05-09T07:12:02.329Z,24.03
2024-05-09T07:13:02.086Z,24.03
2024-05-09T07:14:02.087Z,24.00
2024-05-09T07:15:02.139Z,24.01
2024-05-09T07:16:02.068Z,24.04
2024-05-09T07:17:02.251Z,24.07
2024-05-09T07:18:02.484Z,24.07
2024-05-09T07:19:02.161Z,24.08
2024-05-09T07:20:02.106Z,24.10
2024-05-09T07:21:02.126Z,24.11
2024-05-09T07:22:02.083Z,24.17
2024-05-09T07:23:02.163Z,24.22
2024-05-09T07:24:02.016Z,24.25
2024-05-09T07:25:02.036Z,24.28
2024-05-09T07:26:02.029Z,24.32
2024-05-09T07:27:02.066Z,24.34
2024-05-09T07:28:01.969Z,24.38
2024-05-09T07:29:02.044Z,24.40
2024-05-09T07:30:02.220Z,24.43
2024-05-09T07:31:01.962Z,24.46
2024-05-09T07:32:01.985Z,24.51
2024-05-09T07:33:02.769Z,24.54
2024-05-09T07:34:02.215Z,24.55
2024-05-09T07:35:02.053Z,24.54
2024-05-09T07:36:02.031Z,24.51
2024-05-09T07:37:01.916Z,24.54
2024-05-09T07:38:02.880Z,24.55
2024-05-09T07:39:01.890Z,24.56
2024-05-09T07:40:01.894Z,24.58
2024-05-09T07:41:02.045Z,24.58
2024-05-09T07:42:01.873Z,24.55
2024-05-09T07:43:01.899Z,24.62
2024-05-09T07:44:01.897Z,24.59
2024-05-09T07:45:21.046Z,24.58
2024-05-09T07:47:03.856Z,24.56
2024-05-09T07:53:25.361Z,24.62
2024-05-09T07:53:36.158Z,24.60
2024-05-09T07:54:03.285Z,24.59
2024-05-09T07:55:01.920Z,24.60
2024-05-09T07:56:01.935Z,24.65
2024-05-09T07:57:01.968Z,24.65
2024-05-09T07:58:01.800Z,24.66
2024-05-09T07:59:01.730Z,24.66
2024-05-09T08:00:01.809Z,24.65
2024-05-09T08:01:01.825Z,24.67
2024-05-09T08:02:01.994Z,24.67
2024-05-09T08:03:01.746Z,24.67
2024-05-09T08:04:01.799Z,24.72
2024-05-09T08:05:02.043Z,24.73
2024-05-09T08:06:01.715Z,24.73
2024-05-09T08:07:01.702Z,24.73
2024-05-09T08:08:01.690Z,24.73
2024-05-09T08:09:05.520Z,24.73
2024-05-09T08:10:03.299Z,24.77
2024-05-09T08:11:01.648Z,24.82
2024-05-09T08:12:01.654Z,24.82
2024-05-09T08:13:01.737Z,24.83
2024-05-09T08:14:01.606Z,24.83
2024-05-09T08:15:01.595Z,24.90
2024-05-09T08:16:01.680Z,24.84
2024-05-09T08:17:01.708Z,24.86
2024-05-09T08:18:01.813Z,24.86
2024-05-09T08:19:01.639Z,24.93
2024-05-09T08:20:03.702Z,24.90
2024-05-09T08:21:01.536Z,24.89
2024-05-09T08:22:01.606Z,24.89
2024-05-09T08:23:01.514Z,24.97
2024-05-09T08:24:01.562Z,24.96
2024-05-09T08:25:01.578Z,24.98
2024-05-09T08:26:01.498Z,24.96
2024-05-09T08:27:01.502Z,24.94
2024-05-09T08:28:01.615Z,24.91
2024-05-09T08:29:01.470Z,24.89
2024-05-09T08:30:01.604Z,24.90
2024-05-09T08:31:04.088Z,24.89
2024-05-09T08:32:01.583Z,24.87
2024-05-09T08:33:01.505Z,24.86
2024-05-09T08:34:01.566Z,24.87
2024-05-09T08:35:01.472Z,24.84
2024-05-09T08:36:01.464Z,24.84
2024-05-09T08:37:09.795Z,24.80
2024-05-09T08:38:02.587Z,24.80
2024-05-09T08:39:01.425Z,24.80
2024-05-09T08:40:01.511Z,24.77
2024-05-09T08:41:01.368Z,24.76
2024-05-09T08:42:01.389Z,24.76
2024-05-09T08:43:01.440Z,24.75
2024-05-09T08:44:01.378Z,24.76
2024-05-09T08:45:01.374Z,24.72
2024-05-09T08:46:01.442Z,24.73
2024-05-09T08:47:01.326Z,24.73
2024-05-09T08:48:01.568Z,24.70
2024-05-09T08:49:01.492Z,24.73
2024-05-09T08:50:01.574Z,24.72
2024-05-09T08:51:01.332Z,24.69
2024-05-09T08:52:01.357Z,24.72
2024-05-09T08:53:01.377Z,24.70
2024-05-09T08:54:01.346Z,24.72
2024-05-09T08:55:01.302Z,24.70
2024-05-09T08:56:01.301Z,24.70
2024-05-09T08:57:01.254Z,24.70
2024-05-09T08:58:01.399Z,24.67
2024-05-09T08:59:01.279Z,24.67
2024-05-09T09:00:01.268Z,24.66
2024-05-09T09:01:01.425Z,24.66
2024-05-09T09:02:01.519Z,24.66
2024-05-09T09:03:01.411Z,24.66
2024-05-09T09:04:01.543Z,24.69
2024-05-09T09:05:01.473Z,24.69
2024-05-09T09:06:01.409Z,24.69
2024-05-09T09:07:03.365Z,24.70
2024-05-09T09:08:01.409Z,24.70
2024-05-09T09:09:01.447Z,24.70
2024-05-09T09:10:01.518Z,24.69
2024-05-09T09:11:01.473Z,24.72
2024-05-09T09:12:01.527Z,24.72
2024-05-09T09:13:01.671Z,24.76
2024-05-09T09:14:01.588Z,24.76
2024-05-09T09:15:01.601Z,24.77
2024-05-09T09:16:03.613Z,24.76
2024-05-09T09:17:01.611Z,24.79
2024-05-09T09:18:01.814Z,24.79
2024-05-09T09:19:01.715Z,24.79
2024-05-09T09:20:01.788Z,24.80
2024-05-09T09:21:01.687Z,24.80
2024-05-09T09:22:03.304Z,24.83
2024-05-09T09:23:01.655Z,24.84
2024-05-09T09:24:02.307Z,24.89
2024-05-09T09:25:02.424Z,24.91
2024-05-09T09:26:01.773Z,24.94
2024-05-09T09:27:01.687Z,24.96
2024-05-09T09:28:01.770Z,24.98
2024-05-09T09:29:01.695Z,24.97
2024-05-09T09:30:01.684Z,24.98
2024-05-09T09:31:01.865Z,25.03
2024-05-09T09:32:01.696Z,25.04
2024-05-09T09:33:02.599Z,25.07
2024-05-09T09:34:02.421Z,25.09
2024-05-09T09:35:01.763Z,25.10
2024-05-09T09:36:03.303Z,25.10
2024-05-09T09:37:03.329Z,25.09
2024-05-09T09:38:01.773Z,25.10
2024-05-09T09:39:01.650Z,25.09
2024-05-09T09:40:03.832Z,25.09
2024-05-09T09:41:01.891Z,25.07
2024-05-09T09:42:01.692Z,25.06
2024-05-09T09:43:01.675Z,25.10
2024-05-09T09:44:01.639Z,25.07
2024-05-09T09:45:04.796Z,25.09
2024-05-09T09:46:01.652Z,25.11
2024-05-09T09:47:01.606Z,25.10
2024-05-09T09:48:01.581Z,25.10
2024-05-09T09:49:02.769Z,25.11
2024-05-09T09:50:02.344Z,25.10
2024-05-09T09:51:01.579Z,25.10
2024-05-09T09:52:01.508Z,25.11
2024-05-09T09:53:01.512Z,25.13
2024-05-09T09:54:01.487Z,25.10
2024-05-09T09:55:01.445Z,25.11
2024-05-09T09:56:01.454Z,25.13
2024-05-09T09:57:01.411Z,25.11
2024-05-09T09:58:01.527Z,25.15
2024-05-09T09:59:01.355Z,25.13
2024-05-09T10:00:01.421Z,25.14
2024-05-09T10:01:02.378Z,25.15
2024-05-09T10:02:01.498Z,25.15
2024-05-09T10:03:01.810Z,25.17
2024-05-09T10:04:01.435Z,25.17
2024-05-09T10:05:01.395Z,25.18
2024-05-09T10:06:01.301Z,25.20
2024-05-09T10:07:01.327Z,25.18
2024-05-09T10:08:01.788Z,25.18
2024-05-09T10:09:01.798Z,25.23
2024-05-09T10:10:04.148Z,25.21
2024-05-09T10:11:01.444Z,25.21
2024-05-09T10:12:01.486Z,25.21
2024-05-09T10:13:01.534Z,25.23
2024-05-09T10:14:04.282Z,25.20
2024-05-09T10:15:01.342Z,25.23
2024-05-09T10:16:01.366Z,25.23
2024-05-09T10:17:02.463Z,25.20
2024-05-09T10:18:01.502Z,25.23
2024-05-09T10:19:01.420Z,25.23
2024-05-09T10:20:01.312Z,25.21
2024-05-09T10:21:01.251Z,25.21
2024-05-09T10:22:01.328Z,25.23
2024-05-09T10:23:01.848Z,25.21
2024-05-09T10:24:01.215Z,25.24
2024-05-09T10:25:02.772Z,25.24
2024-05-09T10:26:01.357Z,25.24
2024-05-09T10:27:01.231Z,25.21
2024-05-09T10:28:01.274Z,25.23
2024-05-09T10:29:01.207Z,25.24
2024-05-09T10:30:01.223Z,25.21
2024-05-09T10:31:01.208Z,25.23
2024-05-09T10:32:01.214Z,25.23
2024-05-09T10:33:01.276Z,25.24
2024-05-09T10:34:01.431Z,25.25
2024-05-09T10:35:01.230Z,25.25
2024-05-09T10:36:01.125Z,25.27
2024-05-09T10:37:02.010Z,25.27
2024-05-09T10:38:01.082Z,25.30
2024-05-09T10:39:01.073Z,25.31
2024-05-09T10:40:01.085Z,25.34
2024-05-09T10:41:01.050Z,25.34
2024-05-09T10:42:01.056Z,25.34
2024-05-09T10:43:04.454Z,25.35
2024-05-09T10:44:01.032Z,25.40
2024-05-09T10:45:01.041Z,25.38
2024-05-09T10:46:01.137Z,25.37
2024-05-09T10:47:01.091Z,25.40
2024-05-09T10:48:01.277Z,25.38
2024-05-09T10:49:04.204Z,25.40
2024-05-09T10:50:01.141Z,25.41
2024-05-09T10:51:01.127Z,25.40
2024-05-09T10:52:01.120Z,25.41
2024-05-09T10:53:01.026Z,25.44
2024-05-09T10:54:01.021Z,25.44
2024-05-09T10:55:01.722Z,25.45
2024-05-09T10:56:01.004Z,25.45
2024-05-09T10:57:00.958Z,25.46
2024-05-09T10:58:00.967Z,25.45
2024-05-09T10:59:00.993Z,25.44
2024-05-09T11:00:01.021Z,25.46
2024-05-09T11:01:02.451Z,25.45
2024-05-09T11:02:01.060Z,25.45
2024-05-09T11:03:01.090Z,25.46
2024-05-09T11:04:01.144Z,25.44
2024-05-09T11:05:01.187Z,25.45
2024-05-09T11:06:00.951Z,25.45
2024-05-09T11:07:02.816Z,25.44
2024-05-09T11:08:00.916Z,25.44
2024-05-09T11:09:00.922Z,25.46
2024-05-09T11:10:00.932Z,25.44
2024-05-09T11:11:00.860Z,25.48
2024-05-09T11:12:00.941Z,25.49
2024-05-09T11:13:00.891Z,25.49
2024-05-09T11:14:00.838Z,25.49
2024-05-09T11:15:00.833Z,25.48
2024-05-09T11:16:00.849Z,25.48
2024-05-09T11:17:00.784Z,25.49
2024-05-09T11:18:00.950Z,25.49
2024-05-09T11:19:00.908Z,25.51
2024-05-09T11:20:00.857Z,25.51
2024-05-09T11:21:00.824Z,25.55
2024-05-09T11:22:00.836Z,25.53
2024-05-09T11:23:00.838Z,25.55
2024-05-09T11:24:00.910Z,25.53
2024-05-09T11:25:00.967Z,25.55
2024-05-09T11:26:00.983Z,25.55
2024-05-09T11:27:01.012Z,25.55
2024-05-09T11:28:01.198Z,25.53
2024-05-09T11:29:01.157Z,25.57
2024-05-09T11:30:01.168Z,25.55
2024-05-09T11:31:01.276Z,25.58
2024-05-09T11:32:01.334Z,25.57
2024-05-09T11:33:01.409Z,25.58
2024-05-09T11:34:01.437Z,25.59
2024-05-09T11:35:01.402Z,25.59
2024-05-09T11:36:01.474Z,25.61
2024-05-09T11:37:01.544Z,25.59
2024-05-09T11:38:02.345Z,25.64
2024-05-09T11:39:01.646Z,25.62
2024-05-09T11:40:01.711Z,25.64
2024-05-09T11:41:01.740Z,25.65
2024-05-09T11:42:01.789Z,25.66
2024-05-09T11:43:01.907Z,25.65
2024-05-09T11:44:01.898Z,25.66
2024-05-09T11:45:01.906Z,25.64
2024-05-09T11:46:02.057Z,25.66
2024-05-09T11:47:01.990Z,25.68
2024-05-09T11:48:03.076Z,25.69
2024-05-09T11:49:02.315Z,25.70
2024-05-09T11:50:02.336Z,25.70
2024-05-09T11:51:02.181Z,25.73
2024-05-09T11:52:02.248Z,25.73
2024-05-09T11:53:02.252Z,25.73
2024-05-09T11:54:02.118Z,25.73
2024-05-09T11:55:02.128Z,25.73
2024-05-09T11:56:02.144Z,25.73
2024-05-09T11:57:02.076Z,25.75
2024-05-09T11:58:02.175Z,25.75
2024-05-09T11:59:02.434Z,25.76
2024-05-09T12:00:02.321Z,25.80
2024-05-09T12:01:02.107Z,25.79
2024-05-09T12:02:02.148Z,25.82
2024-05-09T12:03:01.989Z,25.83
2024-05-09T12:04:02.167Z,25.80
2024-05-09T12:05:03.054Z,25.85
2024-05-09T12:06:02.118Z,25.86
2024-05-09T12:07:01.960Z,25.85
2024-05-09T12:08:02.151Z,25.86
2024-05-09T12:09:02.352Z,25.87
2024-05-09T12:10:02.072Z,25.86
2024-05-09T12:11:02.120Z,25.86
2024-05-09T12:12:02.097Z,25.86
2024-05-09T12:13:02.367Z,25.87
2024-05-09T12:14:02.152Z,25.87
2024-05-09T12:15:02.164Z,25.89
2024-05-09T12:16:02.365Z,25.93
2024-05-09T12:17:02.347Z,25.92
2024-05-09T12:18:03.916Z,25.90
2024-05-09T12:19:02.449Z,25.92
2024-05-09T12:20:02.522Z,25.95
2024-05-09T12:21:02.334Z,25.92
2024-05-09T12:22:02.452Z,25.93
2024-05-09T12:23:02.419Z,25.96
2024-05-09T12:24:02.849Z,25.95
2024-05-09T12:25:02.491Z,25.96
2024-05-09T12:26:02.468Z,25.99
2024-05-09T12:27:02.486Z,25.97
2024-05-09T12:28:02.582Z,26.00
2024-05-09T12:29:03.346Z,26.01
2024-05-09T12:30:07.189Z,26.00
2024-05-09T12:31:02.601Z,26.01
2024-05-09T12:32:02.567Z,26.04
2024-05-09T12:33:02.651Z,26.03
2024-05-09T12:34:02.550Z,26.03
2024-05-09T12:35:02.429Z,26.07
2024-05-09T12:36:02.413Z,26.06
2024-05-09T12:37:02.472Z,26.07
2024-05-09T12:38:02.392Z,26.12
2024-05-09T12:39:02.385Z,26.10
2024-05-09T12:40:03.685Z,26.10
2024-05-09T12:41:02.370Z,26.13
2024-05-09T12:42:02.370Z,26.14
2024-05-09T12:43:02.379Z,26.14
2024-05-09T12:44:02.237Z,26.17
2024-05-09T12:45:02.202Z,26.14
2024-05-09T12:46:02.264Z,26.19
2024-05-09T12:47:02.141Z,26.19
2024-05-09T12:48:02.239Z,26.20
2024-05-09T12:49:02.266Z,26.20
2024-05-09T12:50:02.932Z,26.24
2024-05-09T12:51:02.096Z,26.23
2024-05-09T12:52:02.108Z,26.26
2024-05-09T12:53:02.959Z,26.28
2024-05-09T12:54:01.988Z,26.28
2024-05-09T12:55:02.028Z,26.28
2024-05-09T12:56:03.644Z,26.31
2024-05-09T12:57:01.932Z,26.33
2024-05-09T12:58:01.984Z,26.34